Portada
METAR-TAF:

METAR-TAF

Aeroports :

Mutsu, Japó

latitud: 41-14N, longitud: 141-08E, altitud: 7 m

Observació

L'informe es va fer fa 7 hores i 39 minuts, a les 19:43 UTC
Vent 9 kt del Oest amb ràfegues de 22 kt, variant entre Sud/Sud-Oest i Nord
Temperatura 1°C
Humitat 47%
Pressió 1020 hPa
Visibilitat 10 km o més
Escasses núvols a una alçada de 2000 ft
Cel ennuvolat a una alçada de 4000 ft

METAR: RJSO 121943Z 28009G22KT 210V350 9999 FEW020 BKN040 01/M09 Q1020 RMK 1CU020 6CU040 A3014

Hora: 12:22 (03:22 UTC)


TAF: manca

Observacions i pronòstics meteorològics de més de 4000 aeroports (METAR i TAF).

Les estacions disponibles són els punts grocs i vermells al mapa.

Posi el ratolí al punt desitjat per veure el nom de l'estació.

Feu clic per veure les observacions i els pronòstics meteorològics.

Per canviar el mapa: feu clic els botons verds amb una creu de color negre per apropar; al botó verd amb un guió per allunyar la imatge; o en les fletxes verdes per a mapes adjacents.


METAR-TAF: